logo
Rechercher aéroport 
image banner adimage banner adimage banner ad
image banner ad

GQPP - Nouadhibou

Situé à Nouadhibou, Mauritania

ICAO - GQPP, IATA - NDB

Données fournies par Airmate  

Information générale

Coordonnées: N20°55'42" W17°1'52"
Élévation : 9 feet MSL.
 
Voir autres Aéroports à Dakhlet Nouadhibou

Données opérationnelles

Special qualification required
Heure actuelle UTC:
Heure actuelle locale:
Météo
METAR: GQPP 021200Z 04008KT 6000 NSC 20/04 Q1019 NOSIG
TAF: TAF GQPP 020500Z 0206/0306 03015KT 8000 NSC
Voir NOTAMs / SUP AIP / TFR affectant cet aéroport [VIEW]
Fréquences de communication: [VIEW]

Pistes:

Identifiant RWYQFULongueur (ft)Largeur (ft)SurfaceLDA (ft)
0214°7956148ASP
20194°7956148ASP

Coordonnées de l'aéroport

Adresse: Nouadhibou Mauritania

Vue satellite de GQPP